Time;durP1;ratioP1;P1;durP2;ratioP2;P2;SDS_P1;SDS_P2;PMS_P1;PMS_P2;Temp;Humidity;BMP_temperature;BMP_pressure;BME280_temperature;BME280_humidity;BME280_pressure;Samples;Min_cycle;Max_cycle;Signal;HPM_P1;HPM_P2
2023/01/21 00:01:13;;;;;;;63.65;28.58;;;-2.70;99.90;;;;;;5008377;28;20096;-71
2023/01/21 00:03:41;;;;;;;64.53;29.13;;;-2.70;99.90;;;;;;5009877;28;20130;-72
2023/01/21 00:06:11;;;;;;;77.95;29.35;;;-2.70;99.90;;;;;;4992038;28;20160;-71
2023/01/21 00:08:38;;;;;;;67.25;29.30;;;-2.60;99.90;;;;;;5008468;28;20528;-70
2023/01/21 00:11:14;;;;;;;79.43;30.30;;;-2.50;99.90;;;;;;5008270;28;20058;-69
2023/01/21 00:13:42;;;;;;;66.18;29.45;;;-2.50;99.90;;;;;;4992993;28;20469;-71
2023/01/21 00:16:11;;;;;;;76.47;31.00;;;-2.40;99.90;;;;;;5010993;28;20099;-70
2023/01/21 00:18:38;;;;;;;60.75;26.95;;;-2.40;99.90;;;;;;4997614;28;20053;-72
2023/01/21 00:21:06;;;;;;;80.40;32.65;;;-2.30;99.90;;;;;;5011301;28;20416;-71
2023/01/21 00:23:33;;;;;;;65.63;29.35;;;-2.30;99.90;;;;;;4978269;28;20050;-71
2023/01/21 00:26:04;;;;;;;80.78;28.08;;;-2.30;99.90;;;;;;5009587;28;20069;-72
2023/01/21 00:28:33;;;;;;;70.45;29.33;;;-2.20;99.90;;;;;;4994270;28;20140;-70
2023/01/21 00:31:02;;;;;;;69.68;30.63;;;-2.20;99.90;;;;;;5010059;28;20112;-71
2023/01/21 00:33:30;;;;;;;70.40;29.63;;;-2.10;99.90;;;;;;5010218;28;20474;-70
2023/01/21 00:36:21;;;;;;;69.57;30.27;;;-2.10;99.90;;;;;;5009910;28;20061;-71
2023/01/21 00:38:48;;;;;;;69.25;28.48;;;-2.10;99.90;;;;;;5011727;28;20499;-71
2023/01/21 00:41:16;;;;;;;68.40;28.02;;;-2.10;99.90;;;;;;5009642;28;20392;-71
2023/01/21 00:43:44;;;;;;;62.40;27.63;;;-2.10;99.90;;;;;;5011386;28;20034;-71
2023/01/21 00:46:11;;;;;;;61.17;28.05;;;-2.10;99.90;;;;;;5009785;28;20441;-71
2023/01/21 00:48:39;;;;;;;65.43;28.30;;;-2.10;99.90;;;;;;5011272;28;20488;-70
2023/01/21 00:51:07;;;;;;;61.17;28.70;;;-2.10;99.90;;;;;;5010138;28;20461;-71
2023/01/21 00:53:37;;;;;;;65.65;29.33;;;-2.00;99.90;;;;;;5009724;28;20157;-69
2023/01/21 00:56:06;;;;;;;69.57;28.33;;;-2.00;99.90;;;;;;5006989;28;20084;-70
2023/01/21 00:58:37;;;;;;;84.63;34.05;;;-1.90;99.90;;;;;;5006578;28;20045;-71
2023/01/21 01:01:08;;;;;;;69.32;29.70;;;-1.90;99.90;;;;;;4999683;28;20076;-70
2023/01/21 01:03:36;;;;;;;69.40;30.35;;;-1.90;99.90;;;;;;4991457;28;20037;-70
2023/01/21 01:06:10;;;;;;;69.93;28.80;;;-1.80;99.90;;;;;;5011852;28;20350;-70
2023/01/21 01:08:37;;;;;;;60.05;26.98;;;-1.90;99.90;;;;;;5010453;28;20133;-70
2023/01/21 01:11:05;;;;;;;56.20;25.50;;;-1.80;99.90;;;;;;5007735;28;20397;-71
2023/01/21 01:13:34;;;;;;;61.95;25.23;;;-1.90;99.90;;;;;;5015052;28;20038;-71
2023/01/21 01:16:02;;;;;;;54.90;25.27;;;-1.90;99.90;;;;;;5014096;28;20060;-70
2023/01/21 01:18:32;;;;;;;58.63;25.67;;;-1.80;99.90;;;;;;5013489;28;20052;-70
2023/01/21 01:21:00;;;;;;;54.70;24.65;;;-1.90;99.90;;;;;;5014537;28;20054;-70
2023/01/21 01:23:28;;;;;;;54.75;26.13;;;-1.90;99.90;;;;;;5014498;28;20050;-71
2023/01/21 01:26:00;;;;;;;58.63;25.27;;;-1.90;99.90;;;;;;5014255;28;20334;-70
2023/01/21 01:28:29;;;;;;;51.00;24.30;;;-1.90;99.90;;;;;;5014673;28;20471;-71
2023/01/21 01:30:57;;;;;;;54.53;24.38;;;-1.90;99.90;;;;;;5012713;28;20060;-70
2023/01/21 01:33:25;;;;;;;49.13;24.60;;;-2.00;99.90;;;;;;5012988;28;20169;-71
2023/01/21 01:35:53;;;;;;;48.40;23.85;;;-2.00;99.90;;;;;;5014438;28;20145;-72
2023/01/21 01:38:22;;;;;;;51.63;24.35;;;-1.90;99.90;;;;;;5012758;28;20044;-69
2023/01/21 01:40:51;;;;;;;46.72;23.63;;;-1.90;99.90;;;;;;5012570;28;20104;-70
2023/01/21 01:43:21;;;;;;;42.70;22.75;;;-1.90;99.90;;;;;;5013159;28;20517;-70
2023/01/21 01:45:49;;;;;;;48.25;22.88;;;-2.00;99.90;;;;;;5014216;28;20057;-70
2023/01/21 01:48:28;;;;;;;45.90;21.15;;;-1.90;99.90;;;;;;5012985;28;20045;-69
2023/01/21 01:51:00;;;;;;;42.15;20.40;;;-1.90;99.90;;;;;;5013794;28;20115;-70
2023/01/21 01:53:31;;;;;;;45.25;21.30;;;-1.90;99.90;;;;;;5012143;28;20086;-70
2023/01/21 01:55:59;;;;;;;43.15;21.33;;;-1.90;99.90;;;;;;5014096;28;20213;-70
2023/01/21 01:58:28;;;;;;;42.55;21.23;;;-1.90;99.90;;;;;;5012778;28;20049;-70
2023/01/21 02:00:56;;;;;;;40.42;19.25;;;-1.80;99.90;;;;;;5013641;28;20504;-70
2023/01/21 02:03:44;;;;;;;45.30;21.33;;;-1.80;99.90;;;;;;5012787;28;20054;-71
2023/01/21 02:06:12;;;;;;;44.83;20.98;;;-1.90;99.90;;;;;;5012108;28;20438;-71
2023/01/21 02:08:41;;;;;;;42.60;22.40;;;-1.90;99.90;;;;;;5013811;28;20053;-71
2023/01/21 02:11:17;;;;;;;40.78;20.25;;;-1.90;99.90;;;;;;5015104;28;20133;-72
2023/01/21 02:13:49;;;;;;;42.58;20.05;;;-1.90;99.90;;;;;;5016555;28;20381;-71
2023/01/21 02:16:58;;;;;;;40.47;19.95;;;-1.90;99.90;;;;;;5029924;28;20468;-71
2023/01/21 02:20:08;;;;;;;39.38;19.90;;;-2.00;99.90;;;;;;5011590;28;20425;-70
2023/01/21 02:23:03;;;;;;;46.28;20.48;;;-2.10;99.90;;;;;;5000594;28;20095;-70
2023/01/21 02:25:45;;;;;;;38.03;18.63;;;-2.10;99.90;;;;;;5009352;28;20146;-71
2023/01/21 02:28:40;;;;;;;41.92;19.13;;;-2.20;99.90;;;;;;5007869;28;20057;-70
2023/01/21 02:31:35;;;;;;;49.33;20.85;;;-2.30;99.90;;;;;;5011385;28;20050;-70
2023/01/21 02:34:07;;;;;;;40.17;20.13;;;-2.40;99.90;;;;;;5011743;28;20468;-71
2023/01/21 02:36:55;;;;;;;42.72;19.88;;;-2.40;99.90;;;;;;4994150;28;20507;-69
2023/01/21 02:39:32;;;;;;;39.92;19.27;;;-2.50;99.90;;;;;;5011154;28;20042;-70
2023/01/21 02:42:17;;;;;;;42.83;20.88;;;-2.50;99.90;;;;;;5011400;28;20034;-70
2023/01/21 02:45:08;;;;;;;46.97;21.02;;;-2.60;99.90;;;;;;5011812;28;20449;-69
2023/01/21 02:48:04;;;;;;;44.15;20.70;;;-2.60;99.90;;;;;;5019741;28;20366;-70
2023/01/21 02:50:49;;;;;;;46.65;20.95;;;-2.60;99.90;;;;;;5040541;28;20360;-70
2023/01/21 02:53:30;;;;;;;52.38;21.73;;;-2.70;99.90;;;;;;5018434;28;20361;-70
2023/01/21 02:56:04;;;;;;;44.53;20.92;;;-2.70;99.90;;;;;;5006318;28;20439;-71
2023/01/21 02:58:35;;;;;;;42.13;20.52;;;-2.70;99.90;;;;;;5016705;28;20045;-70
2023/01/21 03:01:16;;;;;;;44.10;20.35;;;-2.70;99.90;;;;;;5010723;28;20042;-70
2023/01/21 03:04:09;;;;;;;41.92;20.50;;;-2.70;99.90;;;;;;5010325;28;20140;-70
2023/01/21 03:07:00;;;;;;;41.28;20.27;;;-2.60;99.90;;;;;;5010125;28;20144;-69
2023/01/21 03:09:30;;;;;;;40.97;19.75;;;-2.60;99.90;;;;;;5030577;28;20039;-71
2023/01/21 03:12:12;;;;;;;39.63;20.05;;;-2.60;99.90;;;;;;5030435;28;20042;-70
2023/01/21 03:17:45;;;;;;;41.33;19.98;;;-2.60;99.90;;;;;;5025016;28;20045;-70
2023/01/21 03:20:35;;;;;;;44.85;20.98;;;-2.60;99.90;;;;;;5031268;28;20538;-70
2023/01/21 03:23:08;;;;;;;42.53;22.38;;;-2.60;99.90;;;;;;5030197;28;20495;-70
2023/01/21 03:25:37;;;;;;;46.53;21.48;;;-2.70;99.90;;;;;;4994505;28;20048;-71
2023/01/21 03:28:09;;;;;;;45.28;21.13;;;-2.60;99.90;;;;;;5012476;28;20128;-70
2023/01/21 03:30:42;;;;;;;44.10;20.80;;;-2.60;99.90;;;;;;5021648;28;20053;-70
2023/01/21 03:33:13;;;;;;;44.53;19.70;;;-2.50;99.90;;;;;;5013732;28;20485;-71
2023/01/21 03:35:44;;;;;;;41.40;20.90;;;-2.40;99.90;;;;;;5030093;28;20045;-70
2023/01/21 03:38:23;;;;;;;41.45;21.02;;;-2.40;99.90;;;;;;5030127;28;20416;-70
2023/01/21 03:40:57;;;;;;;43.47;19.92;;;-2.30;99.90;;;;;;5028410;28;20449;-70
2023/01/21 03:43:24;;;;;;;41.55;20.52;;;-2.30;99.90;;;;;;5009996;28;20508;-70
2023/01/21 03:46:05;;;;;;;45.67;20.95;;;-2.30;99.90;;;;;;5019957;28;20489;-70
2023/01/21 03:48:47;;;;;;;42.53;21.23;;;-2.20;99.90;;;;;;5024044;28;20048;-71
2023/01/21 03:51:19;;;;;;;44.88;20.83;;;-2.20;99.90;;;;;;5008740;28;20123;-69
2023/01/21 03:53:51;;;;;;;;;;;-2.20;99.90;;;;;;5008839;28;20443;-69
2023/01/21 03:56:18;;;;;;;44.05;20.88;;;-2.20;99.90;;;;;;5011878;28;19961;-71
2023/01/21 03:58:45;;;;;;;42.00;20.15;;;-2.10;99.90;;;;;;5023803;28;20488;-70
2023/01/21 04:01:12;;;;;;;44.90;21.05;;;-2.10;99.90;;;;;;4995390;28;20042;-71
2023/01/21 04:03:42;;;;;;;43.63;20.27;;;-2.10;99.90;;;;;;5010310;28;20416;-71
2023/01/21 04:06:20;;;;;;;44.58;20.67;;;-2.00;99.90;;;;;;5018407;28;20141;-69
2023/01/21 04:08:48;;;;;;;44.00;19.77;;;-2.00;99.90;;;;;;5029739;28;20121;-71
2023/01/21 04:11:16;;;;;;;41.53;20.52;;;-2.00;99.90;;;;;;4982031;28;20067;-70
2023/01/21 04:13:43;;;;;;;42.85;19.90;;;-2.00;99.90;;;;;;5022584;28;20389;-69
2023/01/21 04:16:10;;;;;;;43.00;19.60;;;-2.00;99.90;;;;;;5001330;28;20591;-70
2023/01/21 04:18:38;;;;;;;40.25;20.10;;;-1.90;99.90;;;;;;5010456;28;20119;-71
2023/01/21 04:21:05;;;;;;;41.55;19.80;;;-1.90;99.90;;;;;;5011437;28;20480;-70
2023/01/21 04:23:32;;;;;;;39.15;20.05;;;-2.00;99.90;;;;;;5021950;28;20049;-70
2023/01/21 04:26:00;;;;;;;40.97;20.55;;;-2.00;99.90;;;;;;5010768;28;20038;-70
2023/01/21 04:28:27;;;;;;;44.63;20.48;;;-2.00;99.90;;;;;;5009314;28;20539;-70
2023/01/21 04:30:54;;;;;;;46.42;21.45;;;-2.00;99.90;;;;;;5001654;28;20389;-71
2023/01/21 04:33:21;;;;;;;43.33;20.58;;;-2.00;99.90;;;;;;5030073;28;20050;-70
2023/01/21 04:35:49;;;;;;;51.05;21.88;;;-2.00;99.90;;;;;;5018983;28;20045;-70
2023/01/21 04:38:17;;;;;;;44.42;21.33;;;-2.00;99.90;;;;;;5010567;28;20038;-71
2023/01/21 04:40:44;;;;;;;45.03;21.30;;;-1.90;99.90;;;;;;5028311;28;20049;-71
2023/01/21 04:43:11;;;;;;;46.88;21.20;;;-2.00;99.90;;;;;;5009976;28;20066;-70
2023/01/21 04:45:39;;;;;;;45.80;23.08;;;-2.10;99.90;;;;;;5030565;28;20153;-69
2023/01/21 04:48:06;;;;;;;52.80;23.60;;;-2.10;99.90;;;;;;5016656;28;20128;-70
2023/01/21 04:50:34;;;;;;;49.75;22.67;;;-2.10;99.90;;;;;;5026818;28;20048;-71
2023/01/21 04:53:01;;;;;;;52.40;23.30;;;-2.10;99.90;;;;;;5014280;28;20405;-71
2023/01/21 04:55:28;;;;;;;50.15;23.70;;;-2.10;99.90;;;;;;4979892;28;20046;-71
2023/01/21 04:57:56;;;;;;;45.47;21.63;;;-2.10;99.90;;;;;;5018329;28;20041;-70
2023/01/21 05:00:23;;;;;;;49.90;22.02;;;-2.00;99.90;;;;;;4994368;28;20386;-70
2023/01/21 05:02:51;;;;;;;48.80;23.52;;;-2.00;99.90;;;;;;5009999;28;20056;-71
2023/01/21 05:05:18;;;;;;;48.95;23.77;;;-2.00;99.90;;;;;;5021627;28;20047;-71
2023/01/21 05:07:46;;;;;;;45.90;22.33;;;-1.90;99.90;;;;;;5028866;28;20053;-71
2023/01/21 05:10:17;;;;;;;52.33;24.35;;;-1.90;99.90;;;;;;5031701;28;20038;-71
2023/01/21 05:12:45;;;;;;;51.90;22.52;;;-1.90;99.90;;;;;;5025374;28;20519;-71
2023/01/21 05:15:12;;;;;;;50.88;22.17;;;-1.90;99.90;;;;;;5014291;28;20037;-71
2023/01/21 05:17:39;;;;;;;52.47;23.48;;;-1.90;99.90;;;;;;5020101;28;20515;-71
2023/01/21 05:20:07;;;;;;;57.83;23.45;;;-1.90;99.90;;;;;;5013010;28;20078;-71
2023/01/21 05:22:35;;;;;;;50.45;22.38;;;-1.90;99.90;;;;;;5013174;28;20409;-70
2023/01/21 05:25:02;;;;;;;53.85;23.65;;;-1.90;99.90;;;;;;5012233;28;20617;-71
2023/01/21 05:27:30;;;;;;;52.75;24.00;;;-1.90;99.90;;;;;;5013723;28;20567;-71
2023/01/21 05:29:57;;;;;;;51.78;22.65;;;-1.90;99.90;;;;;;5014383;28;20053;-70
2023/01/21 05:32:24;;;;;;;48.80;24.05;;;-2.00;99.90;;;;;;5022998;28;20388;-70
2023/01/21 05:34:52;;;;;;;49.67;22.83;;;-2.00;99.90;;;;;;5032995;28;20416;-71
2023/01/21 05:37:19;;;;;;;56.90;24.23;;;-1.90;99.90;;;;;;5027171;28;20408;-70
2023/01/21 05:39:46;;;;;;;53.90;22.88;;;-1.90;99.90;;;;;;5014269;28;20512;-70
2023/01/21 05:42:14;;;;;;;51.17;24.15;;;-1.90;99.90;;;;;;5013023;28;20038;-71
2023/01/21 05:44:41;;;;;;;55.50;25.17;;;-1.90;99.90;;;;;;5030943;28;20043;-70
2023/01/21 05:47:08;;;;;;;48.92;22.52;;;-1.90;99.90;;;;;;5033618;28;20547;-71
2023/01/21 05:49:35;;;;;;;51.72;23.05;;;-2.00;99.90;;;;;;5033893;28;20053;-71
2023/01/21 05:52:03;;;;;;;50.67;22.77;;;-2.00;99.90;;;;;;5031055;28;20057;-70
2023/01/21 05:54:30;;;;;;;58.30;23.83;;;-2.00;99.90;;;;;;5024389;28;20066;-70
2023/01/21 05:56:57;;;;;;;53.15;24.02;;;-1.90;99.90;;;;;;5012832;28;20050;-71
2023/01/21 05:59:25;;;;;;;47.65;21.85;;;-1.90;99.90;;;;;;5013459;28;20370;-70
2023/01/21 06:01:52;;;;;;;52.40;23.60;;;-1.90;99.90;;;;;;5026843;28;20072;-70
2023/01/21 06:04:19;;;;;;;54.83;23.95;;;-1.90;99.90;;;;;;5032764;28;20460;-69
2023/01/21 06:06:49;;;;;;;53.13;22.85;;;-1.90;99.90;;;;;;5023191;28;20117;-70
2023/01/21 06:09:17;;;;;;;49.08;23.08;;;-1.90;99.90;;;;;;5032937;28;20049;-70
2023/01/21 06:11:44;;;;;;;51.63;23.27;;;-1.90;99.90;;;;;;5018548;28;20041;-71
2023/01/21 06:14:11;;;;;;;50.30;22.58;;;-1.80;99.90;;;;;;4995816;28;20049;-70
2023/01/21 06:16:38;;;;;;;50.80;23.63;;;-1.80;99.90;;;;;;5015116;28;20100;-70
2023/01/21 06:19:06;;;;;;;51.92;22.58;;;-1.80;99.90;;;;;;5013716;28;20501;-71
2023/01/21 06:21:33;;;;;;;45.97;21.90;;;-1.80;99.90;;;;;;4993593;28;20061;-70
2023/01/21 06:24:01;;;;;;;49.88;22.30;;;-1.80;99.90;;;;;;5033461;28;20076;-71
2023/01/21 06:26:28;;;;;;;52.90;22.10;;;-1.80;99.90;;;;;;5032328;28;20045;-70
2023/01/21 06:28:56;;;;;;;57.42;22.70;;;-1.70;99.90;;;;;;5015553;28;20049;-70
2023/01/21 06:31:23;;;;;;;49.50;21.23;;;-1.70;99.90;;;;;;5019364;28;20122;-72
2023/01/21 06:33:51;;;;;;;45.88;21.42;;;-1.70;99.90;;;;;;4993955;28;20046;-71
2023/01/21 06:36:18;;;;;;;49.20;22.83;;;-1.80;99.90;;;;;;5013516;28;20512;-71
2023/01/21 06:38:45;;;;;;;49.72;23.10;;;-1.70;99.90;;;;;;5013395;28;20042;-71
2023/01/21 06:41:12;;;;;;;45.47;22.30;;;-1.70;99.90;;;;;;5011682;28;20500;-70
2023/01/21 06:43:40;;;;;;;49.10;22.67;;;-1.70;99.90;;;;;;5011244;28;20129;-71
2023/01/21 06:46:07;;;;;;;49.08;23.17;;;-1.70;99.90;;;;;;5012738;28;20477;-70
2023/01/21 06:48:34;;;;;;;53.80;23.98;;;-1.60;99.90;;;;;;5013984;28;20416;-70
2023/01/21 06:51:02;;;;;;;48.42;22.88;;;-1.60;99.90;;;;;;5021783;28;20045;-70
2023/01/21 06:53:29;;;;;;;52.38;22.40;;;-1.70;99.90;;;;;;5011467;28;20497;-70
2023/01/21 06:55:56;;;;;;;49.45;22.02;;;-1.70;99.90;;;;;;5010653;28;20401;-70
2023/01/21 06:58:24;;;;;;;47.88;22.92;;;-1.80;99.90;;;;;;5012363;28;20412;-71
2023/01/21 07:00:54;;;;;;;50.10;23.13;;;-1.70;99.90;;;;;;5011122;28;20048;-70
2023/01/21 07:03:21;;;;;;;54.00;22.98;;;-1.70;99.90;;;;;;5011545;28;20437;-70
2023/01/21 07:05:48;;;;;;;42.53;21.75;;;-1.70;99.90;;;;;;5011064;28;20042;-70
2023/01/21 07:08:16;;;;;;;46.58;21.33;;;-1.70;99.90;;;;;;5032515;28;20062;-71
2023/01/21 07:10:43;;;;;;;48.30;21.95;;;-1.70;99.90;;;;;;5009717;28;20606;-71
2023/01/21 07:13:13;;;;;;;45.28;22.70;;;-1.70;99.90;;;;;;4984788;28;20095;-71
2023/01/21 07:15:41;;;;;;;46.97;22.05;;;-1.70;99.90;;;;;;5009509;28;20083;-71
2023/01/21 07:18:08;;;;;;;44.60;20.63;;;-1.70;99.90;;;;;;5010806;28;20485;-71
2023/01/21 07:20:37;;;;;;;47.58;21.30;;;-1.60;99.90;;;;;;5010847;28;20045;-71
2023/01/21 07:23:07;;;;;;;47.70;21.42;;;-1.50;99.90;;;;;;4979196;28;20125;-71
2023/01/21 07:25:36;;;;;;;46.30;21.08;;;-1.50;99.90;;;;;;5011740;28;20416;-71
2023/01/21 07:28:03;;;;;;;44.05;21.60;;;-1.60;99.90;;;;;;5008254;28;20044;-71
2023/01/21 07:30:30;;;;;;;42.97;20.33;;;-1.70;99.90;;;;;;5010915;28;20117;-71
2023/01/21 07:33:04;;;;;;;50.20;22.80;;;-1.50;99.90;;;;;;5014238;28;20068;-71
2023/01/21 07:35:31;;;;;;;43.72;21.80;;;-1.50;99.90;;;;;;5014694;28;20042;-74
2023/01/21 07:37:59;;;;;;;47.10;22.38;;;-1.40;99.90;;;;;;5022758;28;20084;-73
2023/01/21 07:40:26;;;;;;;44.22;21.10;;;-1.40;99.90;;;;;;4994509;28;20132;-72
2023/01/21 07:42:54;;;;;;;47.40;21.83;;;-1.40;99.90;;;;;;5010665;28;20065;-73
2023/01/21 07:45:22;;;;;;;46.08;20.75;;;-1.40;99.90;;;;;;5010104;28;20459;-73
2023/01/21 07:47:50;;;;;;;43.65;19.95;;;-1.50;99.90;;;;;;5010259;28;20046;-72
2023/01/21 07:50:17;;;;;;;41.25;19.20;;;-1.40;99.90;;;;;;5010557;28;20053;-71
2023/01/21 07:52:44;;;;;;;44.10;20.45;;;-1.40;99.90;;;;;;5011941;28;20042;-72
2023/01/21 07:55:12;;;;;;;42.65;19.48;;;-1.40;99.90;;;;;;5011837;28;20389;-71
2023/01/21 07:57:39;;;;;;;36.90;19.33;;;-1.40;99.90;;;;;;5011782;28;20057;-72
2023/01/21 08:00:07;;;;;;;48.80;20.75;;;-1.40;99.90;;;;;;4993894;28;20058;-70
2023/01/21 08:02:38;;;;;;;45.83;20.67;;;-1.40;99.90;;;;;;4990906;28;20572;-70
2023/01/21 08:05:06;;;;;;;46.25;20.63;;;-1.40;99.90;;;;;;5004080;28;20099;-71
2023/01/21 08:07:33;;;;;;;42.65;19.33;;;-1.40;99.90;;;;;;5009988;28;20045;-72
2023/01/21 08:10:01;;;;;;;40.08;19.23;;;-1.30;99.90;;;;;;5011525;28;20132;-73
2023/01/21 08:12:28;;;;;;;43.88;20.40;;;-1.30;99.90;;;;;;5007784;28;20050;-71
2023/01/21 08:14:56;;;;;;;41.25;20.42;;;-1.20;99.90;;;;;;4993660;28;20116;-71
2023/01/21 08:17:23;;;;;;;38.00;19.15;;;-1.10;99.90;;;;;;5010412;28;20492;-71
2023/01/21 08:19:50;;;;;;;41.60;18.63;;;-1.00;99.90;;;;;;4993744;28;20050;-70
2023/01/21 08:22:18;;;;;;;35.30;17.88;;;-1.00;99.90;;;;;;5009411;28;20042;-73
2023/01/21 08:24:45;;;;;;;46.92;20.50;;;-1.00;99.90;;;;;;5007549;28;20453;-73
2023/01/21 08:27:12;;;;;;;38.97;18.95;;;-1.00;99.90;;;;;;5004936;28;20030;-72
2023/01/21 08:29:39;;;;;;;38.17;19.33;;;-0.90;99.90;;;;;;4988333;28;20113;-72
2023/01/21 08:32:07;;;;;;;40.28;19.65;;;-0.90;99.90;;;;;;5002714;28;20030;-72
2023/01/21 08:34:34;;;;;;;37.83;18.90;;;-0.90;99.90;;;;;;5006891;28;20046;-72
2023/01/21 08:37:01;;;;;;;37.75;17.45;;;-0.80;99.90;;;;;;5008456;28;20552;-71
2023/01/21 08:39:29;;;;;;;36.50;18.10;;;-0.70;99.90;;;;;;5010403;28;20582;-72
2023/01/21 08:41:56;;;;;;;36.25;18.13;;;-0.60;99.90;;;;;;5009908;28;20575;-72
2023/01/21 08:44:23;;;;;;;39.35;17.95;;;-0.40;99.90;;;;;;5010024;28;20496;-72
2023/01/21 08:46:50;;;;;;;35.50;18.00;;;-0.50;99.90;;;;;;5009660;28;20053;-74
2023/01/21 08:49:18;;;;;;;39.20;18.50;;;-0.40;99.90;;;;;;5011453;28;20549;-73
2023/01/21 08:51:45;;;;;;;38.33;17.77;;;-0.40;99.90;;;;;;5009859;28;20030;-73
2023/01/21 08:54:13;;;;;;;33.30;18.17;;;-0.30;99.90;;;;;;5002652;28;20074;-75
2023/01/21 08:56:40;;;;;;;33.30;17.02;;;-0.30;99.90;;;;;;4996370;28;20045;-73
2023/01/21 08:59:08;;;;;;;36.95;18.05;;;-0.30;99.90;;;;;;5005076;28;20053;-74
2023/01/21 09:01:39;;;;;;;34.40;16.17;;;-0.20;99.90;;;;;;5009508;28;20042;-75
2023/01/21 09:04:08;;;;;;;36.35;16.77;;;-0.20;99.90;;;;;;5006616;28;20076;-73
2023/01/21 09:06:35;;;;;;;40.22;17.88;;;-0.20;99.90;;;;;;4998417;28;20042;-75
2023/01/21 09:09:02;;;;;;;36.80;17.30;;;-0.20;99.90;;;;;;5009264;28;20046;-74
2023/01/21 09:11:30;;;;;;;35.25;16.75;;;-0.10;99.90;;;;;;5008999;28;20038;-76
2023/01/21 09:14:02;;;;;;;35.17;17.27;;;0.00;99.90;;;;;;5007422;28;20053;-74
2023/01/21 09:16:32;;;;;;;31.50;15.20;;;0.10;99.90;;;;;;4991404;28;20041;-73
2023/01/21 09:19:00;;;;;;;31.33;15.85;;;0.20;99.90;;;;;;5009059;28;20655;-75
2023/01/21 09:21:33;;;;;;;33.35;16.42;;;0.30;99.90;;;;;;5004924;28;20136;-74
2023/01/21 09:24:01;;;;;;;29.63;15.50;;;0.40;99.90;;;;;;5007029;28;20416;-74
2023/01/21 09:26:28;;;;;;;32.40;15.88;;;0.70;99.90;;;;;;4997558;28;20429;-75
2023/01/21 09:28:58;;;;;;;36.65;16.40;;;0.80;99.90;;;;;;5013737;28;20034;-74
2023/01/21 09:31:27;;;;;;;30.88;15.57;;;1.00;99.90;;;;;;5012100;28;20047;-75
2023/01/21 09:34:01;;;;;;;31.35;15.90;;;1.00;99.90;;;;;;5015168;28;20049;-74
2023/01/21 09:36:33;;;;;;;29.98;15.18;;;1.00;99.90;;;;;;5014067;28;20053;-74
2023/01/21 09:39:01;;;;;;;31.80;16.90;;;1.10;99.90;;;;;;4994918;28;20057;-74
2023/01/21 09:41:43;;;;;;;28.38;14.90;;;1.00;99.90;;;;;;5011582;28;20048;-74
2023/01/21 09:44:31;;;;;;;28.77;15.50;;;1.00;99.90;;;;;;4993027;28;20082;-76
2023/01/21 09:47:23;;;;;;;27.85;14.75;;;1.10;99.90;;;;;;4990739;28;20138;-74
2023/01/21 09:49:52;;;;;;;31.70;16.90;;;1.10;99.90;;;;;;4997453;28;20122;-74
2023/01/21 09:52:28;;;;;;;30.23;16.77;;;1.20;99.90;;;;;;5028893;28;20313;-75
2023/01/21 09:54:57;;;;;;;31.13;16.50;;;1.20;99.90;;;;;;4994436;28;20349;-75
2023/01/21 09:57:27;;;;;;;27.95;14.90;;;1.30;99.90;;;;;;5010801;28;20038;-73
2023/01/21 10:00:34;;;;;;;26.35;14.38;;;1.30;99.90;;;;;;5022963;28;20041;-73
2023/01/21 10:03:18;;;;;;;19.02;10.68;;;1.40;99.90;;;;;;5032594;28;20159;-74
2023/01/21 10:05:52;;;;;;;18.83;9.15;;;1.50;99.90;;;;;;5023079;28;20042;-74
2023/01/21 10:08:40;;;;;;;19.60;9.95;;;1.60;99.90;;;;;;5026857;28;20045;-73
2023/01/21 10:11:26;;;;;;;16.77;9.25;;;1.60;99.90;;;;;;5030466;28;20048;-72
2023/01/21 10:14:11;;;;;;;17.95;9.00;;;1.60;99.90;;;;;;5032136;28;20470;-72
2023/01/21 10:16:53;;;;;;;21.08;9.80;;;1.70;99.90;;;;;;5028324;28;20045;-73
2023/01/21 10:19:27;;;;;;;19.00;9.63;;;1.70;99.90;;;;;;5029355;28;20459;-74
2023/01/21 10:22:12;;;;;;;17.27;8.98;;;1.70;99.90;;;;;;5031263;28;20041;-72
2023/01/21 10:25:05;;;;;;;15.27;8.48;;;1.70;99.90;;;;;;5030475;28;20500;-74
2023/01/21 10:27:36;;;;;;;14.95;8.07;;;1.50;99.90;;;;;;5014927;28;20041;-74
2023/01/21 10:30:22;;;;;;;17.37;9.17;;;1.50;99.90;;;;;;5016246;28;20053;-74
2023/01/21 10:32:53;;;;;;;15.18;8.35;;;1.50;99.90;;;;;;4995879;28;20571;-74
2023/01/21 10:35:45;;;;;;;16.48;8.73;;;1.40;99.90;;;;;;5012675;28;20042;-72
2023/01/21 10:38:18;;;;;;;;;;;1.40;99.90;;;;;;5031563;28;20038;-73
2023/01/21 10:41:02;;;;;;;20.65;8.70;;;1.60;99.90;;;;;;5002330;28;20393;-74
2023/01/21 10:44:08;;;;;;;17.85;8.82;;;1.70;99.90;;;;;;5008443;28;20042;-73
2023/01/21 10:46:47;;;;;;;15.95;9.15;;;1.60;99.90;;;;;;5001964;28;20445;-73
2023/01/21 10:49:28;;;;;;;17.45;9.65;;;1.60;99.90;;;;;;4987064;28;20049;-73
2023/01/21 10:52:23;;;;;;;19.27;9.70;;;1.50;99.90;;;;;;4993860;28;20120;-73
2023/01/21 10:55:01;;;;;;;19.60;9.63;;;1.40;99.90;;;;;;5010785;28;20181;-73
2023/01/21 10:57:38;;;;;;;18.85;10.57;;;1.40;99.90;;;;;;4994408;28;20532;-73
2023/01/21 11:00:25;;;;;;;20.05;9.63;;;1.40;99.90;;;;;;4975645;28;20054;-73
2023/01/21 11:02:57;;;;;;;18.27;10.15;;;1.40;99.90;;;;;;5009575;28;20452;-71
2023/01/21 11:05:25;;;;;;;18.67;8.95;;;1.30;99.90;;;;;;5009127;28;20132;-72
2023/01/21 11:07:54;;;;;;;32.40;15.45;;;1.20;99.90;;;;;;5007249;28;20152;-73
2023/01/21 11:10:24;;;;;;;17.40;8.93;;;1.00;99.90;;;;;;4973083;28;20465;-74
2023/01/21 11:12:55;;;;;;;16.63;9.18;;;0.90;99.90;;;;;;5000170;28;20076;-73
2023/01/21 11:15:23;;;;;;;16.70;9.07;;;0.80;99.90;;;;;;5014425;28;20045;-73
2023/01/21 11:17:55;;;;;;;16.50;9.05;;;0.90;99.90;;;;;;5016530;28;20717;-74
2023/01/21 11:20:39;;;;;;;15.15;7.90;;;1.00;99.90;;;;;;4992761;28;20465;-73
2023/01/21 11:23:30;;;;;;;14.88;8.23;;;1.10;99.90;;;;;;4988228;28;20100;-74
2023/01/21 11:26:20;;;;;;;16.33;8.73;;;1.10;99.90;;;;;;4991132;28;20505;-73
2023/01/21 11:28:47;;;;;;;17.55;9.27;;;1.00;99.90;;;;;;5014399;28;20034;-74
2023/01/21 11:31:23;;;;;;;15.25;8.55;;;0.90;99.90;;;;;;5010477;28;20500;-74
2023/01/21 11:33:51;;;;;;;16.90;8.73;;;0.90;99.90;;;;;;5001205;28;20599;-74
2023/01/21 11:36:20;;;;;;;20.58;8.48;;;0.80;99.90;;;;;;5029215;28;20046;-74
2023/01/21 11:39:03;;;;;;;17.70;8.80;;;0.90;99.90;;;;;;5029907;28;20045;-75
2023/01/21 11:41:32;;;;;;;15.18;8.10;;;1.00;99.90;;;;;;5021066;28;20053;-73
2023/01/21 11:44:32;;;;;;;12.88;7.35;;;0.90;99.90;;;;;;5010858;28;20564;-74
2023/01/21 11:47:00;;;;;;;14.43;7.25;;;1.10;99.90;;;;;;5023415;28;20049;-75
2023/01/21 11:49:30;;;;;;;15.45;7.55;;;1.10;99.90;;;;;;5018596;28;20141;-72
2023/01/21 11:52:16;;;;;;;17.10;7.97;;;1.20;99.90;;;;;;5022191;28;20352;-73
2023/01/21 11:54:44;;;;;;;14.43;7.47;;;1.30;99.90;;;;;;5020988;28;20042;-72
2023/01/21 11:57:30;;;;;;;14.93;7.95;;;1.40;99.90;;;;;;4994044;28;20045;-71
2023/01/21 12:00:08;;;;;;;14.57;7.57;;;1.40;99.90;;;;;;4992965;28;20128;-74
2023/01/21 12:02:43;;;;;;;13.32;7.40;;;1.40;99.90;;;;;;5007015;28;20559;-72
2023/01/21 12:05:16;;;;;;;14.43;7.55;;;1.80;99.90;;;;;;4998599;28;20042;-72
2023/01/21 12:07:49;;;;;;;12.05;7.25;;;1.90;99.90;;;;;;5000864;28;20395;-72
2023/01/21 12:10:30;;;;;;;12.55;7.03;;;1.90;99.90;;;;;;5013052;28;20509;-72
2023/01/21 12:13:02;;;;;;;14.50;8.07;;;1.80;99.90;;;;;;5011936;28;20041;-72
2023/01/21 12:15:39;;;;;;;12.80;7.35;;;1.70;99.90;;;;;;5025348;28;20045;-73
2023/01/21 12:18:12;;;;;;;16.90;7.55;;;1.70;99.90;;;;;;5014193;28;20034;-74
2023/01/21 12:21:00;;;;;;;14.13;7.45;;;1.70;99.90;;;;;;5024273;28;20088;-74
2023/01/21 12:23:58;;;;;;;15.20;8.43;;;1.70;99.90;;;;;;5029651;28;20088;-71
2023/01/21 12:26:44;;;;;;;15.70;7.45;;;1.90;99.90;;;;;;5028593;28;20505;-73
2023/01/21 12:29:44;;;;;;;18.38;7.95;;;1.80;99.90;;;;;;5009573;28;20042;-74
2023/01/21 12:32:36;;;;;;;12.77;7.18;;;2.00;99.90;;;;;;5004772;28;20545;-74
2023/01/21 12:35:12;;;;;;;13.10;7.70;;;1.90;99.90;;;;;;5005199;28;20767;-72
2023/01/21 12:37:50;;;;;;;14.00;7.70;;;1.70;99.90;;;;;;4991803;28;20535;-74
2023/01/21 12:40:31;;;;;;;12.73;7.03;;;1.80;99.90;;;;;;5008609;28;20214;-74
2023/01/21 12:43:11;;;;;;;11.85;7.15;;;1.80;99.90;;;;;;5008682;28;20416;-72
2023/01/21 12:45:47;;;;;;;12.52;7.38;;;1.70;99.90;;;;;;5009068;28;20077;-72
2023/01/21 12:48:25;;;;;;;16.77;8.90;;;1.70;99.90;;;;;;5009758;28;20038;-72
2023/01/21 12:51:06;;;;;;;14.90;8.35;;;1.70;99.90;;;;;;5003583;28;20057;-72
2023/01/21 12:54:03;;;;;;;13.38;7.70;;;1.80;99.90;;;;;;5008558;28;20128;-74
2023/01/21 12:56:48;;;;;;;16.25;7.78;;;1.50;99.90;;;;;;4996101;28;20135;-73
2023/01/21 12:59:18;;;;;;;14.05;8.00;;;1.40;99.90;;;;;;4989791;28;20137;-73
2023/01/21 13:01:57;;;;;;;16.55;8.15;;;1.20;99.90;;;;;;4990920;28;20129;-73
2023/01/21 13:04:56;;;;;;;13.25;7.50;;;1.10;99.90;;;;;;4996712;28;20050;-73